createdAt,value
2019-02-08T00:03:13.216Z,9.97
2019-02-08T00:11:48.016Z,9.50
2019-02-08T00:16:08.104Z,10.47
2019-02-08T00:20:28.073Z,9.70
2019-02-08T00:24:47.635Z,9.77
2019-02-08T00:29:07.322Z,9.33
2019-02-08T00:33:26.507Z,9.63
2019-02-08T00:37:45.929Z,9.50
2019-02-08T00:42:05.926Z,9.50
2019-02-08T00:46:24.791Z,9.37
2019-02-08T00:50:44.412Z,9.47
2019-02-08T00:55:04.094Z,10.37
2019-02-08T00:59:23.970Z,9.80
2019-02-08T01:03:43.635Z,9.70
2019-02-08T01:08:03.032Z,9.70
2019-02-08T01:12:20.811Z,9.57
2019-02-08T01:16:39.404Z,10.53
2019-02-08T01:20:58.489Z,10.53
2019-02-08T01:25:18.019Z,11.43
2019-02-08T01:29:37.306Z,9.67
2019-02-08T01:33:56.961Z,10.53
2019-02-08T01:38:15.979Z,11.33
2019-02-08T01:42:35.003Z,10.10
2019-02-08T01:46:55.045Z,10.50
2019-02-08T01:51:15.358Z,11.23
2019-02-08T01:55:34.763Z,8.87
2019-02-08T01:59:55.858Z,9.73
2019-02-08T02:04:15.299Z,9.60
2019-02-08T02:08:34.872Z,9.47
2019-02-08T02:12:53.954Z,9.33
2019-02-08T02:17:13.852Z,9.47
2019-02-08T02:26:02.987Z,8.30
2019-02-08T02:30:22.378Z,8.37
2019-02-08T02:34:43.002Z,8.27
2019-02-08T02:39:02.254Z,8.70
2019-02-08T02:43:23.243Z,8.17
2019-02-08T02:47:42.998Z,7.97
2019-02-08T02:52:03.779Z,7.73
2019-02-08T02:56:23.957Z,8.17
2019-02-08T03:01:01.326Z,8.63
2019-02-08T03:05:19.483Z,9.47
2019-02-08T03:09:39.693Z,9.63
2019-02-08T03:13:59.819Z,7.73
2019-02-08T03:18:20.626Z,8.70
2019-02-08T03:22:40.299Z,8.27
2019-02-08T03:27:00.097Z,8.30
2019-02-08T03:31:19.831Z,8.70
2019-02-08T03:35:37.386Z,9.40
2019-02-08T03:39:57.758Z,8.70
2019-02-08T03:44:17.510Z,9.13
2019-02-08T03:48:37.451Z,9.10
2019-02-08T03:52:56.707Z,8.53
2019-02-08T03:57:14.697Z,8.20
2019-02-08T04:01:34.287Z,7.13
2019-02-08T04:05:54.090Z,8.60
2019-02-08T04:10:13.903Z,8.83
2019-02-08T04:14:33.707Z,8.50
2019-02-08T04:18:53.827Z,9.67
2019-02-08T04:23:13.247Z,8.77
2019-02-08T04:27:33.335Z,9.63
2019-02-08T04:31:53.019Z,9.90
2019-02-08T04:36:13.078Z,10.20
2019-02-08T04:40:32.782Z,9.93
2019-02-08T04:44:52.256Z,9.23
2019-02-08T04:49:12.075Z,10.03
2019-02-08T04:53:30.991Z,9.63
2019-02-08T04:57:48.748Z,9.20
2019-02-08T05:02:07.989Z,9.30
2019-02-08T05:06:27.623Z,7.80
2019-02-08T05:10:47.295Z,9.80
2019-02-08T05:15:07.563Z,9.37
2019-02-08T05:19:27.759Z,8.77
2019-02-08T05:23:47.170Z,9.10
2019-02-08T05:28:05.655Z,9.63
2019-02-08T05:32:25.984Z,9.60
2019-02-08T05:36:44.920Z,10.30
2019-02-08T05:41:04.447Z,9.70
2019-02-08T05:45:24.348Z,9.87
2019-02-08T05:49:44.341Z,9.23
2019-02-08T05:54:03.328Z,9.60
2019-02-08T05:58:22.637Z,9.30
2019-02-08T06:02:42.446Z,9.43
2019-02-08T06:07:02.556Z,11.57
2019-02-08T06:11:21.421Z,10.93
2019-02-08T06:15:41.140Z,10.63
2019-02-08T06:20:01.109Z,10.03
2019-02-08T06:24:20.960Z,10.70
2019-02-08T06:28:41.128Z,11.90
2019-02-08T06:33:01.166Z,12.47
2019-02-08T06:37:21.114Z,13.00
2019-02-08T06:41:41.068Z,12.90
2019-02-08T06:46:01.265Z,12.80
2019-02-08T06:50:20.469Z,12.43
2019-02-08T06:54:39.387Z,13.20
2019-02-08T07:13:57.998Z,13.27
2019-02-08T07:47:49.185Z,13.40
2019-02-08T07:52:29.313Z,14.63
2019-02-08T08:01:54.260Z,13.20
2019-02-08T08:06:33.199Z,11.83
2019-02-08T08:15:39.749Z,13.00
2019-02-08T08:20:18.551Z,13.20
2019-02-08T08:34:33.926Z,12.10
2019-02-08T08:43:09.052Z,12.40
2019-02-08T08:47:28.569Z,11.73
2019-02-08T08:51:48.397Z,12.60
2019-02-08T08:56:09.548Z,12.87
2019-02-08T09:00:29.538Z,13.67
2019-02-08T09:04:49.062Z,13.30
2019-02-08T09:09:09.130Z,13.03
2019-02-08T09:13:28.203Z,12.90
2019-02-08T09:17:50.114Z,12.70
2019-02-08T09:22:12.741Z,14.90
2019-02-08T09:26:31.783Z,14.43
2019-02-08T09:30:51.914Z,15.67
2019-02-08T09:35:11.527Z,14.33
2019-02-08T09:39:31.491Z,15.00
2019-02-08T09:43:50.577Z,14.90
2019-02-08T09:48:09.811Z,15.80
2019-02-08T09:53:07.987Z,14.93
2019-02-08T09:57:27.355Z,14.70
2019-02-08T10:01:46.335Z,15.30
2019-02-08T10:06:06.152Z,14.27
2019-02-08T10:10:25.998Z,14.40
2019-02-08T10:14:45.190Z,16.90
2019-02-08T10:19:04.280Z,15.80
2019-02-08T10:23:23.368Z,14.77
2019-02-08T10:27:43.102Z,14.60
2019-02-08T10:32:02.670Z,15.40
2019-02-08T10:36:22.083Z,15.73
2019-02-08T10:40:40.919Z,16.50
2019-02-08T10:44:59.744Z,19.33
2019-02-08T10:49:18.692Z,16.67
2019-02-08T10:53:38.073Z,16.10
2019-02-08T10:57:57.992Z,17.83
2019-02-08T11:02:17.504Z,16.33
2019-02-08T11:10:53.725Z,17.50
2019-02-08T11:15:12.786Z,16.97
2019-02-08T11:19:32.026Z,16.47
2019-02-08T11:23:51.761Z,15.60
2019-02-08T11:28:09.597Z,15.40
2019-02-08T11:32:42.886Z,15.27
2019-02-08T11:36:50.941Z,15.00
2019-02-08T11:41:10.376Z,13.27
2019-02-08T11:45:29.172Z,14.50
2019-02-08T11:49:46.836Z,15.17
2019-02-08T11:54:06.642Z,12.87
2019-02-08T11:58:25.654Z,13.20
2019-02-08T12:02:46.063Z,15.67
2019-02-08T12:07:06.320Z,16.87
2019-02-08T12:11:25.912Z,14.93
2019-02-08T12:15:47.223Z,15.13
2019-02-08T12:20:07.072Z,15.83
2019-02-08T12:24:26.951Z,16.33
2019-02-08T12:28:45.725Z,15.10
2019-02-08T12:33:05.720Z,16.70
2019-02-08T12:37:25.492Z,14.53
2019-02-08T12:41:45.164Z,13.17
2019-02-08T12:46:04.523Z,18.20
2019-02-08T12:50:24.597Z,13.50
2019-02-08T12:54:45.321Z,14.07
2019-02-08T12:59:05.185Z,17.47
2019-02-08T13:03:24.979Z,14.00
2019-02-08T13:07:43.546Z,15.97
2019-02-08T13:12:02.721Z,19.97
2019-02-08T13:16:25.290Z,20.47
2019-02-08T13:20:57.902Z,17.10
2019-02-08T13:25:16.977Z,18.53
2019-02-08T13:29:36.812Z,15.80
2019-02-08T13:33:56.028Z,20.40
2019-02-08T13:38:15.635Z,21.47
2019-02-08T13:42:36.450Z,16.90
2019-02-08T13:46:57.545Z,17.17
2019-02-08T13:51:27.555Z,18.53
2019-02-08T13:55:46.700Z,36.70
2019-02-08T14:00:06.671Z,26.20
2019-02-08T14:04:26.873Z,20.87
2019-02-08T14:08:46.837Z,19.50
2019-02-08T14:13:06.835Z,16.83
2019-02-08T14:17:27.058Z,18.47
2019-02-08T14:21:46.831Z,19.23
2019-02-08T14:26:06.897Z,18.30
2019-02-08T14:30:26.642Z,16.40
2019-02-08T14:34:46.594Z,17.40
2019-02-08T14:39:06.434Z,17.10
2019-02-08T14:47:42.225Z,20.13
2019-02-08T14:52:04.014Z,19.10
2019-02-08T14:56:25.067Z,23.60
2019-02-08T15:00:44.473Z,17.97
2019-02-08T15:05:04.495Z,18.50
2019-02-08T15:09:23.446Z,18.87
2019-02-08T15:13:45.123Z,19.40
2019-02-08T15:18:06.333Z,19.53
2019-02-08T15:22:25.554Z,18.30
2019-02-08T15:26:43.307Z,18.10
2019-02-08T15:31:04.478Z,17.40
2019-02-08T15:35:23.932Z,14.30
2019-02-08T15:39:43.852Z,16.17
2019-02-08T15:44:04.113Z,14.17
2019-02-08T15:48:23.645Z,15.13
2019-02-08T15:57:11.201Z,13.33
2019-02-08T16:01:30.309Z,13.63
2019-02-08T16:05:49.397Z,14.03
2019-02-08T16:10:09.028Z,12.23
2019-02-08T16:14:28.987Z,15.03
2019-02-08T16:18:48.017Z,13.53
2019-02-08T16:23:07.821Z,12.63
2019-02-08T16:27:26.674Z,13.93
2019-02-08T16:31:46.637Z,14.40
2019-02-08T16:36:06.187Z,13.97
2019-02-08T16:40:26.355Z,12.63
2019-02-08T16:44:45.890Z,13.97
2019-02-08T16:49:05.908Z,14.77
2019-02-08T16:53:25.680Z,13.30
2019-02-08T16:57:47.822Z,14.30
2019-02-08T17:02:05.339Z,16.77
2019-02-08T17:06:25.015Z,16.60
2019-02-08T17:10:44.122Z,15.23
2019-02-08T17:19:46.796Z,16.60
2019-02-08T17:24:06.770Z,13.80
2019-02-08T17:28:26.373Z,14.83
2019-02-08T17:32:46.431Z,12.90
2019-02-08T17:37:05.954Z,14.03
2019-02-08T17:41:26.052Z,14.43
2019-02-08T17:45:45.941Z,14.37
2019-02-08T17:50:05.905Z,15.63
2019-02-08T17:54:25.973Z,14.40
2019-02-08T17:58:46.088Z,12.23
2019-02-08T18:03:06.422Z,15.27
2019-02-08T18:07:29.923Z,17.53
2019-02-08T18:11:50.503Z,13.53
2019-02-08T18:16:10.320Z,13.27
2019-02-08T18:20:30.312Z,13.43
2019-02-08T18:24:50.222Z,12.43
2019-02-08T18:33:27.275Z,11.40
2019-02-08T18:37:48.437Z,12.57
2019-02-08T18:42:08.648Z,12.57
2019-02-08T18:46:28.261Z,13.33
2019-02-08T18:50:47.910Z,10.87
2019-02-08T18:55:07.370Z,10.97
2019-02-08T18:59:28.583Z,11.17
2019-02-08T19:03:48.616Z,11.10
2019-02-08T19:08:08.501Z,10.83
2019-02-08T19:12:28.115Z,11.73
2019-02-08T19:16:48.027Z,10.73
2019-02-08T19:21:07.484Z,11.30
2019-02-08T19:25:27.506Z,10.00
2019-02-08T19:29:47.271Z,9.93
2019-02-08T19:34:08.009Z,10.67
2019-02-08T19:38:27.167Z,10.57
2019-02-08T19:42:47.245Z,9.63
2019-02-08T19:47:06.961Z,10.23
2019-02-08T19:51:25.073Z,8.70
2019-02-08T19:55:44.807Z,10.07
2019-02-08T20:00:02.982Z,10.63
2019-02-08T20:04:23.453Z,9.73
2019-02-08T20:08:42.749Z,9.57
2019-02-08T20:13:01.819Z,9.03
2019-02-08T20:17:21.440Z,9.40
2019-02-08T20:21:39.236Z,9.63
2019-02-08T20:25:58.076Z,9.87
2019-02-08T20:30:17.020Z,10.90
2019-02-08T20:34:36.958Z,9.67
2019-02-08T20:38:56.663Z,9.73
2019-02-08T20:43:16.058Z,8.30
2019-02-08T20:47:36.191Z,8.50
2019-02-08T20:51:57.960Z,8.27
2019-02-08T20:56:18.742Z,7.80
2019-02-08T21:00:39.731Z,8.23
2019-02-08T21:04:59.545Z,9.97
2019-02-08T21:09:19.695Z,8.37
2019-02-08T21:13:40.519Z,8.97
2019-02-08T21:18:00.380Z,8.77
2019-02-08T21:22:20.663Z,8.63
2019-02-08T21:26:39.616Z,9.40
2019-02-08T21:31:02.062Z,8.33
2019-02-08T21:35:40.457Z,8.80
2019-02-08T21:40:01.630Z,7.83
2019-02-08T21:44:21.773Z,7.37
2019-02-08T21:48:41.764Z,7.60
2019-02-08T21:53:01.194Z,7.73
2019-02-08T21:57:21.345Z,8.17
2019-02-08T22:01:41.249Z,7.13
2019-02-08T22:06:01.907Z,7.57
2019-02-08T22:10:21.849Z,5.90
2019-02-08T22:14:41.874Z,7.20
2019-02-08T22:19:02.216Z,7.57
2019-02-08T22:27:51.798Z,7.53
2019-02-08T22:32:13.437Z,8.57
2019-02-08T22:36:34.210Z,7.10
2019-02-08T22:40:53.041Z,6.27
2019-02-08T22:45:14.684Z,6.57
2019-02-08T22:49:34.568Z,7.00
2019-02-08T22:53:54.214Z,5.87
2019-02-08T22:58:56.254Z,6.60
2019-02-08T23:03:12.648Z,6.30
2019-02-08T23:07:32.297Z,6.67
2019-02-08T23:16:34.968Z,6.07
2019-02-08T23:20:56.469Z,6.97
2019-02-08T23:25:19.472Z,6.27
2019-02-08T23:29:38.818Z,6.50
2019-02-08T23:33:58.965Z,6.17
2019-02-08T23:38:18.806Z,7.27
2019-02-08T23:42:38.366Z,6.23
2019-02-08T23:46:57.889Z,6.63
2019-02-08T23:51:19.448Z,6.67
2019-02-08T23:55:40.441Z,6.30
